sensor_id;sensor_type;location;lat;lon;timestamp;P1;durP1;ratioP1;P2;durP2;ratioP2
43670;SDS011;29267;50.906;7.248;2023-03-14T00:00:57;2.08;;;1.15;;
43670;SDS011;29267;50.906;7.248;2023-03-14T00:03:23;2.33;;;0.93;;
43670;SDS011;29267;50.906;7.248;2023-03-14T00:05:49;7.45;;;1.00;;
43670;SDS011;29267;50.906;7.248;2023-03-14T00:08:14;3.15;;;0.95;;
43670;SDS011;29267;50.906;7.248;2023-03-14T00:10:40;3.08;;;1.00;;
43670;SDS011;29267;50.906;7.248;2023-03-14T00:13:06;9.00;;;1.13;;
43670;SDS011;29267;50.906;7.248;2023-03-14T00:15:32;5.38;;;1.33;;
43670;SDS011;29267;50.906;7.248;2023-03-14T00:17:59;8.80;;;1.60;;
43670;SDS011;29267;50.906;7.248;2023-03-14T00:20:25;5.15;;;1.23;;
43670;SDS011;29267;50.906;7.248;2023-03-14T00:22:51;5.57;;;1.55;;
43670;SDS011;29267;50.906;7.248;2023-03-14T00:25:16;3.75;;;1.05;;
43670;SDS011;29267;50.906;7.248;2023-03-14T00:27:42;3.17;;;0.93;;
43670;SDS011;29267;50.906;7.248;2023-03-14T00:30:08;1.95;;;0.98;;
43670;SDS011;29267;50.906;7.248;2023-03-14T00:32:34;5.55;;;1.17;;
43670;SDS011;29267;50.906;7.248;2023-03-14T00:35:00;5.38;;;1.55;;
43670;SDS011;29267;50.906;7.248;2023-03-14T00:37:26;8.18;;;0.80;;
43670;SDS011;29267;50.906;7.248;2023-03-14T00:39:52;6.63;;;1.40;;
43670;SDS011;29267;50.906;7.248;2023-03-14T00:42:18;3.22;;;0.77;;
43670;SDS011;29267;50.906;7.248;2023-03-14T00:44:44;3.13;;;1.15;;
43670;SDS011;29267;50.906;7.248;2023-03-14T00:47:09;3.22;;;1.00;;
43670;SDS011;29267;50.906;7.248;2023-03-14T00:49:35;9.88;;;1.25;;
43670;SDS011;29267;50.906;7.248;2023-03-14T00:52:00;5.35;;;2.13;;
43670;SDS011;29267;50.906;7.248;2023-03-14T00:54:26;3.85;;;1.10;;
43670;SDS011;29267;50.906;7.248;2023-03-14T00:56:52;4.75;;;1.10;;
43670;SDS011;29267;50.906;7.248;2023-03-14T00:59:17;6.88;;;2.03;;
43670;SDS011;29267;50.906;7.248;2023-03-14T01:01:43;5.45;;;1.13;;
43670;SDS011;29267;50.906;7.248;2023-03-14T01:04:09;7.45;;;1.27;;
43670;SDS011;29267;50.906;7.248;2023-03-14T01:06:35;4.80;;;1.10;;
43670;SDS011;29267;50.906;7.248;2023-03-14T01:09:01;8.90;;;1.20;;
43670;SDS011;29267;50.906;7.248;2023-03-14T01:11:28;11.73;;;1.40;;
43670;SDS011;29267;50.906;7.248;2023-03-14T01:13:55;8.65;;;0.75;;
43670;SDS011;29267;50.906;7.248;2023-03-14T01:16:22;4.72;;;1.92;;
43670;SDS011;29267;50.906;7.248;2023-03-14T01:18:49;9.75;;;1.95;;
43670;SDS011;29267;50.906;7.248;2023-03-14T01:21:16;10.48;;;1.42;;
43670;SDS011;29267;50.906;7.248;2023-03-14T01:23:44;2.38;;;1.02;;
43670;SDS011;29267;50.906;7.248;2023-03-14T01:26:11;4.57;;;1.88;;
43670;SDS011;29267;50.906;7.248;2023-03-14T01:28:38;4.57;;;1.48;;
43670;SDS011;29267;50.906;7.248;2023-03-14T01:31:04;7.95;;;1.73;;
43670;SDS011;29267;50.906;7.248;2023-03-14T01:33:31;6.70;;;1.08;;
43670;SDS011;29267;50.906;7.248;2023-03-14T01:35:57;4.45;;;1.10;;
43670;SDS011;29267;50.906;7.248;2023-03-14T01:38:22;1.60;;;0.80;;
43670;SDS011;29267;50.906;7.248;2023-03-14T01:40:48;5.78;;;1.40;;
43670;SDS011;29267;50.906;7.248;2023-03-14T01:43:17;6.50;;;1.50;;
43670;SDS011;29267;50.906;7.248;2023-03-14T01:48:31;3.80;;;1.00;;
43670;SDS011;29267;50.906;7.248;2023-03-14T01:51:04;5.03;;;1.25;;
43670;SDS011;29267;50.906;7.248;2023-03-14T01:53:33;8.30;;;1.92;;
43670;SDS011;29267;50.906;7.248;2023-03-14T01:56:00;2.67;;;1.25;;
43670;SDS011;29267;50.906;7.248;2023-03-14T01:58:26;4.00;;;1.15;;
43670;SDS011;29267;50.906;7.248;2023-03-14T02:00:53;5.22;;;1.40;;
43670;SDS011;29267;50.906;7.248;2023-03-14T02:03:22;2.75;;;0.73;;
43670;SDS011;29267;50.906;7.248;2023-03-14T02:05:49;7.88;;;1.23;;
43670;SDS011;29267;50.906;7.248;2023-03-14T02:08:20;4.78;;;1.70;;
43670;SDS011;29267;50.906;7.248;2023-03-14T02:10:48;7.20;;;1.58;;
43670;SDS011;29267;50.906;7.248;2023-03-14T02:13:15;7.65;;;1.30;;
43670;SDS011;29267;50.906;7.248;2023-03-14T02:15:43;2.70;;;0.90;;
43670;SDS011;29267;50.906;7.248;2023-03-14T02:18:09;4.35;;;1.23;;
43670;SDS011;29267;50.906;7.248;2023-03-14T02:20:42;5.93;;;1.65;;
43670;SDS011;29267;50.906;7.248;2023-03-14T02:26:16;4.88;;;1.00;;
43670;SDS011;29267;50.906;7.248;2023-03-14T02:29:05;8.75;;;1.30;;
43670;SDS011;29267;50.906;7.248;2023-03-14T02:31:31;4.07;;;1.40;;
43670;SDS011;29267;50.906;7.248;2023-03-14T02:33:57;3.85;;;1.00;;
43670;SDS011;29267;50.906;7.248;2023-03-14T02:36:24;7.18;;;1.38;;
43670;SDS011;29267;50.906;7.248;2023-03-14T02:41:33;2.30;;;0.52;;
43670;SDS011;29267;50.906;7.248;2023-03-14T02:43:59;5.85;;;0.90;;
43670;SDS011;29267;50.906;7.248;2023-03-14T02:46:25;1.98;;;0.50;;
43670;SDS011;29267;50.906;7.248;2023-03-14T02:48:51;8.88;;;1.92;;
43670;SDS011;29267;50.906;7.248;2023-03-14T02:51:20;1.60;;;0.68;;
43670;SDS011;29267;50.906;7.248;2023-03-14T02:53:46;1.25;;;0.40;;
43670;SDS011;29267;50.906;7.248;2023-03-14T02:56:12;2.60;;;0.45;;
43670;SDS011;29267;50.906;7.248;2023-03-14T02:58:37;8.32;;;0.98;;
43670;SDS011;29267;50.906;7.248;2023-03-14T03:01:03;3.03;;;0.55;;
43670;SDS011;29267;50.906;7.248;2023-03-14T03:03:29;2.13;;;0.65;;
43670;SDS011;29267;50.906;7.248;2023-03-14T03:05:55;0.45;;;0.45;;
43670;SDS011;29267;50.906;7.248;2023-03-14T03:08:22;2.25;;;0.52;;
43670;SDS011;29267;50.906;7.248;2023-03-14T03:10:50;9.82;;;1.05;;
43670;SDS011;29267;50.906;7.248;2023-03-14T03:13:16;1.88;;;0.57;;
43670;SDS011;29267;50.906;7.248;2023-03-14T03:15:42;7.22;;;1.23;;
43670;SDS011;29267;50.906;7.248;2023-03-14T03:18:08;2.10;;;0.70;;
43670;SDS011;29267;50.906;7.248;2023-03-14T03:20:34;6.32;;;1.13;;
43670;SDS011;29267;50.906;7.248;2023-03-14T03:23:00;3.88;;;1.23;;
43670;SDS011;29267;50.906;7.248;2023-03-14T03:25:26;5.28;;;1.08;;
43670;SDS011;29267;50.906;7.248;2023-03-14T03:27:52;5.03;;;0.80;;
43670;SDS011;29267;50.906;7.248;2023-03-14T03:30:18;2.50;;;0.73;;
43670;SDS011;29267;50.906;7.248;2023-03-14T03:32:44;3.60;;;0.50;;
43670;SDS011;29267;50.906;7.248;2023-03-14T03:35:09;1.23;;;0.47;;
43670;SDS011;29267;50.906;7.248;2023-03-14T03:37:35;5.03;;;0.70;;
43670;SDS011;29267;50.906;7.248;2023-03-14T03:40:01;8.25;;;1.15;;
43670;SDS011;29267;50.906;7.248;2023-03-14T03:42:30;5.63;;;0.60;;
43670;SDS011;29267;50.906;7.248;2023-03-14T03:44:57;4.75;;;1.95;;
43670;SDS011;29267;50.906;7.248;2023-03-14T03:47:22;11.00;;;1.45;;
43670;SDS011;29267;50.906;7.248;2023-03-14T03:49:48;6.95;;;1.27;;
43670;SDS011;29267;50.906;7.248;2023-03-14T03:52:13;10.52;;;1.42;;
43670;SDS011;29267;50.906;7.248;2023-03-14T03:54:39;5.18;;;1.17;;
43670;SDS011;29267;50.906;7.248;2023-03-14T03:57:05;6.90;;;1.55;;
43670;SDS011;29267;50.906;7.248;2023-03-14T03:59:30;2.50;;;0.73;;
43670;SDS011;29267;50.906;7.248;2023-03-14T04:01:56;10.77;;;2.22;;
43670;SDS011;29267;50.906;7.248;2023-03-14T04:04:21;5.65;;;1.27;;
43670;SDS011;29267;50.906;7.248;2023-03-14T04:06:47;8.57;;;0.90;;
43670;SDS011;29267;50.906;7.248;2023-03-14T04:09:13;7.28;;;1.40;;
43670;SDS011;29267;50.906;7.248;2023-03-14T04:11:39;6.05;;;1.80;;
43670;SDS011;29267;50.906;7.248;2023-03-14T04:14:04;10.45;;;1.33;;
43670;SDS011;29267;50.906;7.248;2023-03-14T04:16:30;6.78;;;1.25;;
43670;SDS011;29267;50.906;7.248;2023-03-14T04:18:59;4.82;;;1.30;;
43670;SDS011;29267;50.906;7.248;2023-03-14T04:21:25;4.78;;;0.93;;
43670;SDS011;29267;50.906;7.248;2023-03-14T04:23:51;2.22;;;0.82;;
43670;SDS011;29267;50.906;7.248;2023-03-14T04:26:17;8.55;;;1.40;;
43670;SDS011;29267;50.906;7.248;2023-03-14T04:28:43;9.32;;;1.10;;
43670;SDS011;29267;50.906;7.248;2023-03-14T04:31:13;6.78;;;1.13;;
43670;SDS011;29267;50.906;7.248;2023-03-14T04:33:40;3.67;;;1.73;;
43670;SDS011;29267;50.906;7.248;2023-03-14T04:36:06;3.90;;;1.25;;
43670;SDS011;29267;50.906;7.248;2023-03-14T04:38:32;13.75;;;2.17;;
43670;SDS011;29267;50.906;7.248;2023-03-14T04:40:58;5.25;;;1.17;;
43670;SDS011;29267;50.906;7.248;2023-03-14T04:43:25;8.63;;;1.23;;
43670;SDS011;29267;50.906;7.248;2023-03-14T04:45:54;11.13;;;1.45;;
43670;SDS011;29267;50.906;7.248;2023-03-14T04:48:21;3.80;;;0.70;;
43670;SDS011;29267;50.906;7.248;2023-03-14T04:50:48;5.95;;;1.13;;
43670;SDS011;29267;50.906;7.248;2023-03-14T04:53:14;6.20;;;1.45;;
43670;SDS011;29267;50.906;7.248;2023-03-14T04:55:41;5.53;;;1.15;;
43670;SDS011;29267;50.906;7.248;2023-03-14T04:58:06;12.77;;;1.20;;
43670;SDS011;29267;50.906;7.248;2023-03-14T05:00:32;5.35;;;0.90;;
43670;SDS011;29267;50.906;7.248;2023-03-14T05:02:58;0.82;;;0.70;;
43670;SDS011;29267;50.906;7.248;2023-03-14T05:05:24;3.47;;;0.77;;
43670;SDS011;29267;50.906;7.248;2023-03-14T05:07:49;2.88;;;0.80;;
43670;SDS011;29267;50.906;7.248;2023-03-14T05:10:15;4.40;;;1.00;;
43670;SDS011;29267;50.906;7.248;2023-03-14T05:12:41;6.35;;;1.45;;
43670;SDS011;29267;50.906;7.248;2023-03-14T05:15:07;1.80;;;0.73;;
43670;SDS011;29267;50.906;7.248;2023-03-14T05:17:33;3.20;;;1.20;;
43670;SDS011;29267;50.906;7.248;2023-03-14T05:19:59;3.42;;;0.57;;
43670;SDS011;29267;50.906;7.248;2023-03-14T05:22:24;2.17;;;0.52;;
43670;SDS011;29267;50.906;7.248;2023-03-14T05:24:50;3.67;;;0.80;;
43670;SDS011;29267;50.906;7.248;2023-03-14T05:27:16;4.03;;;1.08;;
43670;SDS011;29267;50.906;7.248;2023-03-14T05:29:41;2.08;;;0.40;;
43670;SDS011;29267;50.906;7.248;2023-03-14T05:32:07;2.80;;;0.82;;
43670;SDS011;29267;50.906;7.248;2023-03-14T05:34:32;6.15;;;0.75;;
43670;SDS011;29267;50.906;7.248;2023-03-14T05:36:58;3.53;;;0.60;;
43670;SDS011;29267;50.906;7.248;2023-03-14T05:39:24;0.70;;;0.50;;
43670;SDS011;29267;50.906;7.248;2023-03-14T05:41:50;2.55;;;0.70;;
43670;SDS011;29267;50.906;7.248;2023-03-14T05:44:16;1.65;;;0.43;;
43670;SDS011;29267;50.906;7.248;2023-03-14T05:46:41;5.57;;;0.40;;
43670;SDS011;29267;50.906;7.248;2023-03-14T05:49:07;1.40;;;0.25;;
43670;SDS011;29267;50.906;7.248;2023-03-14T05:51:33;1.02;;;0.30;;
43670;SDS011;29267;50.906;7.248;2023-03-14T05:53:58;3.15;;;0.57;;
43670;SDS011;29267;50.906;7.248;2023-03-14T05:56:24;1.48;;;0.40;;
43670;SDS011;29267;50.906;7.248;2023-03-14T05:58:49;0.43;;;0.35;;
43670;SDS011;29267;50.906;7.248;2023-03-14T06:01:15;1.63;;;0.40;;
43670;SDS011;29267;50.906;7.248;2023-03-14T06:03:41;2.10;;;1.05;;
43670;SDS011;29267;50.906;7.248;2023-03-14T06:06:06;0.93;;;0.47;;
43670;SDS011;29267;50.906;7.248;2023-03-14T06:08:32;2.95;;;0.40;;
43670;SDS011;29267;50.906;7.248;2023-03-14T06:10:59;1.13;;;0.45;;
43670;SDS011;29267;50.906;7.248;2023-03-14T06:13:27;5.75;;;0.40;;
43670;SDS011;29267;50.906;7.248;2023-03-14T06:15:52;0.88;;;0.47;;
43670;SDS011;29267;50.906;7.248;2023-03-14T06:18:18;2.70;;;0.88;;
43670;SDS011;29267;50.906;7.248;2023-03-14T06:20:44;0.73;;;0.40;;
43670;SDS011;29267;50.906;7.248;2023-03-14T06:23:09;0.63;;;0.30;;
43670;SDS011;29267;50.906;7.248;2023-03-14T06:25:35;0.35;;;0.30;;
43670;SDS011;29267;50.906;7.248;2023-03-14T06:28:02;0.75;;;0.43;;
43670;SDS011;29267;50.906;7.248;2023-03-14T06:30:27;0.77;;;0.60;;
43670;SDS011;29267;50.906;7.248;2023-03-14T06:32:53;0.65;;;0.30;;
43670;SDS011;29267;50.906;7.248;2023-03-14T06:35:20;1.92;;;0.40;;
43670;SDS011;29267;50.906;7.248;2023-03-14T06:37:46;1.08;;;0.32;;
43670;SDS011;29267;50.906;7.248;2023-03-14T06:40:12;0.82;;;0.43;;
43670;SDS011;29267;50.906;7.248;2023-03-14T06:42:42;3.35;;;0.57;;
43670;SDS011;29267;50.906;7.248;2023-03-14T06:45:08;1.50;;;0.40;;
43670;SDS011;29267;50.906;7.248;2023-03-14T06:47:34;1.00;;;0.30;;
43670;SDS011;29267;50.906;7.248;2023-03-14T06:50:00;0.20;;;0.20;;
43670;SDS011;29267;50.906;7.248;2023-03-14T06:52:26;1.70;;;0.68;;
43670;SDS011;29267;50.906;7.248;2023-03-14T06:54:51;0.70;;;0.47;;
43670;SDS011;29267;50.906;7.248;2023-03-14T06:57:17;0.28;;;0.20;;
43670;SDS011;29267;50.906;7.248;2023-03-14T06:59:43;4.22;;;0.50;;
43670;SDS011;29267;50.906;7.248;2023-03-14T07:02:11;1.42;;;0.43;;
43670;SDS011;29267;50.906;7.248;2023-03-14T07:04:37;0.80;;;0.47;;
43670;SDS011;29267;50.906;7.248;2023-03-14T07:07:03;1.77;;;0.55;;
43670;SDS011;29267;50.906;7.248;2023-03-14T07:09:29;1.75;;;0.55;;
43670;SDS011;29267;50.906;7.248;2023-03-14T07:11:55;0.40;;;0.20;;
43670;SDS011;29267;50.906;7.248;2023-03-14T07:14:20;2.08;;;0.73;;
43670;SDS011;29267;50.906;7.248;2023-03-14T07:16:46;0.28;;;0.28;;
43670;SDS011;29267;50.906;7.248;2023-03-14T07:19:11;0.63;;;0.40;;
43670;SDS011;29267;50.906;7.248;2023-03-14T07:21:37;2.83;;;0.57;;
43670;SDS011;29267;50.906;7.248;2023-03-14T07:24:03;1.20;;;0.70;;
43670;SDS011;29267;50.906;7.248;2023-03-14T07:26:28;4.40;;;0.30;;
43670;SDS011;29267;50.906;7.248;2023-03-14T07:28:54;0.10;;;0.10;;
43670;SDS011;29267;50.906;7.248;2023-03-14T07:31:20;0.93;;;0.60;;
43670;SDS011;29267;50.906;7.248;2023-03-14T07:33:45;0.43;;;0.40;;
43670;SDS011;29267;50.906;7.248;2023-03-14T07:36:11;0.25;;;0.25;;
43670;SDS011;29267;50.906;7.248;2023-03-14T07:38:36;0.52;;;0.30;;
43670;SDS011;29267;50.906;7.248;2023-03-14T07:41:03;0.38;;;0.35;;
43670;SDS011;29267;50.906;7.248;2023-03-14T07:43:30;0.50;;;0.30;;
43670;SDS011;29267;50.906;7.248;2023-03-14T07:45:55;0.25;;;0.25;;
43670;SDS011;29267;50.906;7.248;2023-03-14T07:48:21;0.20;;;0.20;;
43670;SDS011;29267;50.906;7.248;2023-03-14T07:50:50;0.52;;;0.40;;
43670;SDS011;29267;50.906;7.248;2023-03-14T07:53:16;0.70;;;0.47;;
43670;SDS011;29267;50.906;7.248;2023-03-14T07:55:43;0.40;;;0.25;;
43670;SDS011;29267;50.906;7.248;2023-03-14T07:58:09;1.10;;;0.40;;
43670;SDS011;29267;50.906;7.248;2023-03-14T08:00:34;0.50;;;0.50;;
43670;SDS011;29267;50.906;7.248;2023-03-14T08:03:00;0.30;;;0.30;;
43670;SDS011;29267;50.906;7.248;2023-03-14T08:05:26;0.40;;;0.40;;
43670;SDS011;29267;50.906;7.248;2023-03-14T08:07:51;0.40;;;0.40;;
43670;SDS011;29267;50.906;7.248;2023-03-14T08:10:17;0.60;;;0.40;;
43670;SDS011;29267;50.906;7.248;2023-03-14T08:12:55;1.45;;;0.50;;
43670;SDS011;29267;50.906;7.248;2023-03-14T08:15:22;1.05;;;0.55;;
43670;SDS011;29267;50.906;7.248;2023-03-14T08:17:48;0.85;;;0.60;;
43670;SDS011;29267;50.906;7.248;2023-03-14T08:20:19;1.23;;;0.50;;
43670;SDS011;29267;50.906;7.248;2023-03-14T08:22:46;0.30;;;0.30;;
43670;SDS011;29267;50.906;7.248;2023-03-14T08:25:12;1.10;;;0.70;;
43670;SDS011;29267;50.906;7.248;2023-03-14T08:27:38;3.60;;;0.60;;
43670;SDS011;29267;50.906;7.248;2023-03-14T08:30:06;0.50;;;0.50;;
43670;SDS011;29267;50.906;7.248;2023-03-14T08:32:34;0.40;;;0.40;;
43670;SDS011;29267;50.906;7.248;2023-03-14T08:35:00;0.40;;;0.40;;
43670;SDS011;29267;50.906;7.248;2023-03-14T08:37:25;0.40;;;0.40;;
43670;SDS011;29267;50.906;7.248;2023-03-14T08:39:52;0.50;;;0.47;;
43670;SDS011;29267;50.906;7.248;2023-03-14T08:42:18;0.50;;;0.50;;
43670;SDS011;29267;50.906;7.248;2023-03-14T08:44:44;0.20;;;0.20;;
43670;SDS011;29267;50.906;7.248;2023-03-14T08:47:09;0.40;;;0.40;;
43670;SDS011;29267;50.906;7.248;2023-03-14T08:49:35;0.40;;;0.40;;
43670;SDS011;29267;50.906;7.248;2023-03-14T08:52:01;0.50;;;0.50;;
43670;SDS011;29267;50.906;7.248;2023-03-14T08:54:28;0.30;;;0.30;;
43670;SDS011;29267;50.906;7.248;2023-03-14T08:56:54;0.35;;;0.35;;
43670;SDS011;29267;50.906;7.248;2023-03-14T08:59:20;0.32;;;0.32;;
43670;SDS011;29267;50.906;7.248;2023-03-14T09:01:45;0.30;;;0.30;;
43670;SDS011;29267;50.906;7.248;2023-03-14T09:04:11;0.38;;;0.38;;
43670;SDS011;29267;50.906;7.248;2023-03-14T09:06:36;0.47;;;0.43;;
43670;SDS011;29267;50.906;7.248;2023-03-14T09:09:02;0.75;;;0.43;;
43670;SDS011;29267;50.906;7.248;2023-03-14T09:11:28;1.05;;;0.40;;
43670;SDS011;29267;50.906;7.248;2023-03-14T09:13:53;1.20;;;0.40;;
43670;SDS011;29267;50.906;7.248;2023-03-14T09:16:19;1.08;;;0.80;;
43670;SDS011;29267;50.906;7.248;2023-03-14T09:18:45;1.83;;;1.23;;
43670;SDS011;29267;50.906;7.248;2023-03-14T09:21:10;8.77;;;4.70;;
43670;SDS011;29267;50.906;7.248;2023-03-14T09:23:36;3.63;;;1.30;;
43670;SDS011;29267;50.906;7.248;2023-03-14T09:26:02;1.00;;;0.50;;
43670;SDS011;29267;50.906;7.248;2023-03-14T09:28:27;0.30;;;0.30;;
43670;SDS011;29267;50.906;7.248;2023-03-14T09:30:53;0.30;;;0.30;;
43670;SDS011;29267;50.906;7.248;2023-03-14T09:33:19;1.88;;;0.50;;
43670;SDS011;29267;50.906;7.248;2023-03-14T09:35:45;1.58;;;1.30;;
43670;SDS011;29267;50.906;7.248;2023-03-14T09:38:11;0.40;;;0.40;;
43670;SDS011;29267;50.906;7.248;2023-03-14T09:40:37;0.50;;;0.50;;
43670;SDS011;29267;50.906;7.248;2023-03-14T09:43:03;2.72;;;0.52;;
43670;SDS011;29267;50.906;7.248;2023-03-14T09:45:34;1.67;;;0.77;;
43670;SDS011;29267;50.906;7.248;2023-03-14T09:48:01;1.05;;;0.50;;
43670;SDS011;29267;50.906;7.248;2023-03-14T09:50:48;0.82;;;0.40;;
43670;SDS011;29267;50.906;7.248;2023-03-14T09:53:20;0.38;;;0.30;;
43670;SDS011;29267;50.906;7.248;2023-03-14T09:58:18;6.97;;;0.50;;
43670;SDS011;29267;50.906;7.248;2023-03-14T10:00:45;1.10;;;0.43;;
43670;SDS011;29267;50.906;7.248;2023-03-14T10:05:37;0.50;;;0.50;;
43670;SDS011;29267;50.906;7.248;2023-03-14T10:08:03;0.77;;;0.40;;
43670;SDS011;29267;50.906;7.248;2023-03-14T10:10:29;0.70;;;0.60;;
43670;SDS011;29267;50.906;7.248;2023-03-14T10:15:29;0.70;;;0.60;;
43670;SDS011;29267;50.906;7.248;2023-03-14T10:17:58;0.63;;;0.50;;
43670;SDS011;29267;50.906;7.248;2023-03-14T10:25:40;2.75;;;0.85;;
43670;SDS011;29267;50.906;7.248;2023-03-14T10:31:02;0.50;;;0.50;;
43670;SDS011;29267;50.906;7.248;2023-03-14T10:33:33;0.85;;;0.65;;
43670;SDS011;29267;50.906;7.248;2023-03-14T10:36:05;1.10;;;0.88;;
43670;SDS011;29267;50.906;7.248;2023-03-14T10:38:46;1.42;;;0.85;;
43670;SDS011;29267;50.906;7.248;2023-03-14T10:41:19;1.15;;;0.88;;
43670;SDS011;29267;50.906;7.248;2023-03-14T10:43:50;1.30;;;1.10;;
43670;SDS011;29267;50.906;7.248;2023-03-14T10:46:19;1.10;;;1.00;;
43670;SDS011;29267;50.906;7.248;2023-03-14T10:48:45;3.53;;;1.40;;
43670;SDS011;29267;50.906;7.248;2023-03-14T10:54:09;3.50;;;0.98;;
43670;SDS011;29267;50.906;7.248;2023-03-14T10:56:38;1.90;;;1.58;;
43670;SDS011;29267;50.906;7.248;2023-03-14T10:59:11;3.72;;;1.48;;
43670;SDS011;29267;50.906;7.248;2023-03-14T11:07:09;2.40;;;1.63;;
43670;SDS011;29267;50.906;7.248;2023-03-14T11:09:45;1.67;;;1.52;;
43670;SDS011;29267;50.906;7.248;2023-03-14T11:15:49;4.43;;;1.98;;
43670;SDS011;29267;50.906;7.248;2023-03-14T11:21:07;5.03;;;2.35;;
43670;SDS011;29267;50.906;7.248;2023-03-14T11:26:33;3.40;;;2.00;;
43670;SDS011;29267;50.906;7.248;2023-03-14T11:32:09;3.85;;;1.48;;
43670;SDS011;29267;50.906;7.248;2023-03-14T11:34:52;3.90;;;2.00;;
43670;SDS011;29267;50.906;7.248;2023-03-14T11:40:17;2.20;;;1.45;;
43670;SDS011;29267;50.906;7.248;2023-03-14T11:42:44;2.50;;;1.75;;
43670;SDS011;29267;50.906;7.248;2023-03-14T11:45:16;6.55;;;2.88;;
43670;SDS011;29267;50.906;7.248;2023-03-14T11:47:44;4.85;;;2.35;;
43670;SDS011;29267;50.906;7.248;2023-03-14T11:50:18;2.30;;;1.88;;
43670;SDS011;29267;50.906;7.248;2023-03-14T11:52:51;2.22;;;1.80;;
43670;SDS011;29267;50.906;7.248;2023-03-14T11:55:33;2.67;;;1.92;;
43670;SDS011;29267;50.906;7.248;2023-03-14T11:58:17;4.10;;;1.95;;
43670;SDS011;29267;50.906;7.248;2023-03-14T12:00:45;1.85;;;1.45;;
43670;SDS011;29267;50.906;7.248;2023-03-14T12:09:10;1.02;;;0.60;;
43670;SDS011;29267;50.906;7.248;2023-03-14T12:11:43;0.52;;;0.50;;
43670;SDS011;29267;50.906;7.248;2023-03-14T12:14:28;0.90;;;0.50;;
43670;SDS011;29267;50.906;7.248;2023-03-14T12:17:57;2.90;;;0.43;;
43670;SDS011;29267;50.906;7.248;2023-03-14T12:20:18;1.85;;;0.80;;
43670;SDS011;29267;50.906;7.248;2023-03-14T12:25:17;5.10;;;0.95;;
43670;SDS011;29267;50.906;7.248;2023-03-14T12:27:49;3.55;;;1.52;;
43670;SDS011;29267;50.906;7.248;2023-03-14T12:30:31;2.17;;;1.10;;
43670;SDS011;29267;50.906;7.248;2023-03-14T12:35:38;3.90;;;1.50;;
43670;SDS011;29267;50.906;7.248;2023-03-14T12:38:05;3.63;;;1.98;;
43670;SDS011;29267;50.906;7.248;2023-03-14T12:40:40;5.82;;;2.40;;
43670;SDS011;29267;50.906;7.248;2023-03-14T12:43:29;9.48;;;2.80;;
43670;SDS011;29267;50.906;7.248;2023-03-14T12:46:06;3.78;;;2.35;;
43670;SDS011;29267;50.906;7.248;2023-03-14T12:48:34;6.22;;;2.92;;
43670;SDS011;29267;50.906;7.248;2023-03-14T12:51:03;4.90;;;2.80;;
43670;SDS011;29267;50.906;7.248;2023-03-14T12:56:25;6.43;;;3.05;;
43670;SDS011;29267;50.906;7.248;2023-03-14T12:59:12;6.40;;;3.50;;
43670;SDS011;29267;50.906;7.248;2023-03-14T13:01:48;9.52;;;3.75;;
43670;SDS011;29267;50.906;7.248;2023-03-14T13:04:20;7.22;;;3.50;;
43670;SDS011;29267;50.906;7.248;2023-03-14T13:12:11;8.02;;;3.55;;
43670;SDS011;29267;50.906;7.248;2023-03-14T13:14:48;9.43;;;2.88;;
43670;SDS011;29267;50.906;7.248;2023-03-14T13:17:21;5.13;;;3.03;;
43670;SDS011;29267;50.906;7.248;2023-03-14T13:19:52;9.90;;;3.80;;
43670;SDS011;29267;50.906;7.248;2023-03-14T13:22:38;8.07;;;3.88;;
43670;SDS011;29267;50.906;7.248;2023-03-14T13:25:10;4.25;;;2.53;;
43670;SDS011;29267;50.906;7.248;2023-03-14T13:27:36;4.05;;;2.85;;
43670;SDS011;29267;50.906;7.248;2023-03-14T13:30:05;4.60;;;2.50;;
43670;SDS011;29267;50.906;7.248;2023-03-14T13:32:43;3.75;;;2.22;;
43670;SDS011;29267;50.906;7.248;2023-03-14T13:35:14;4.32;;;2.88;;
43670;SDS011;29267;50.906;7.248;2023-03-14T13:37:41;5.28;;;3.15;;
43670;SDS011;29267;50.906;7.248;2023-03-14T13:40:18;4.40;;;2.22;;
43670;SDS011;29267;50.906;7.248;2023-03-14T13:43:02;4.20;;;2.03;;
43670;SDS011;29267;50.906;7.248;2023-03-14T13:48:41;8.18;;;2.17;;
43670;SDS011;29267;50.906;7.248;2023-03-14T13:51:20;3.00;;;2.00;;
43670;SDS011;29267;50.906;7.248;2023-03-14T13:53:50;10.82;;;3.85;;
43670;SDS011;29267;50.906;7.248;2023-03-14T13:56:19;5.38;;;1.92;;
43670;SDS011;29267;50.906;7.248;2023-03-14T13:58:46;8.82;;;2.40;;
43670;SDS011;29267;50.906;7.248;2023-03-14T14:01:28;4.65;;;2.25;;
43670;SDS011;29267;50.906;7.248;2023-03-14T14:04:06;12.70;;;4.55;;
43670;SDS011;29267;50.906;7.248;2023-03-14T14:06:35;7.80;;;3.50;;
43670;SDS011;29267;50.906;7.248;2023-03-14T14:09:15;4.05;;;2.00;;
43670;SDS011;29267;50.906;7.248;2023-03-14T14:11:48;6.95;;;2.10;;
43670;SDS011;29267;50.906;7.248;2023-03-14T14:16:48;7.47;;;2.05;;
43670;SDS011;29267;50.906;7.248;2023-03-14T14:19:15;4.45;;;1.77;;
43670;SDS011;29267;50.906;7.248;2023-03-14T14:21:42;8.32;;;3.35;;
43670;SDS011;29267;50.906;7.248;2023-03-14T14:24:17;5.65;;;1.70;;
43670;SDS011;29267;50.906;7.248;2023-03-14T14:26:47;5.53;;;1.88;;
43670;SDS011;29267;50.906;7.248;2023-03-14T14:29:28;7.25;;;2.90;;
43670;SDS011;29267;50.906;7.248;2023-03-14T14:32:03;7.18;;;1.23;;
43670;SDS011;29267;50.906;7.248;2023-03-14T14:34:41;9.38;;;1.60;;
43670;SDS011;29267;50.906;7.248;2023-03-14T14:37:17;9.13;;;1.67;;
43670;SDS011;29267;50.906;7.248;2023-03-14T14:39:44;5.95;;;2.15;;
43670;SDS011;29267;50.906;7.248;2023-03-14T14:42:13;5.30;;;1.50;;
43670;SDS011;29267;50.906;7.248;2023-03-14T14:44:41;8.35;;;1.77;;
43670;SDS011;29267;50.906;7.248;2023-03-14T14:47:12;5.55;;;1.55;;
43670;SDS011;29267;50.906;7.248;2023-03-14T14:49:40;7.15;;;1.73;;
43670;SDS011;29267;50.906;7.248;2023-03-14T14:52:16;3.97;;;1.10;;
43670;SDS011;29267;50.906;7.248;2023-03-14T14:54:44;12.27;;;2.30;;
43670;SDS011;29267;50.906;7.248;2023-03-14T14:57:19;11.57;;;2.17;;
43670;SDS011;29267;50.906;7.248;2023-03-14T14:59:48;11.25;;;4.13;;
43670;SDS011;29267;50.906;7.248;2023-03-14T15:02:23;11.30;;;2.40;;
43670;SDS011;29267;50.906;7.248;2023-03-14T15:04:52;9.80;;;1.70;;
43670;SDS011;29267;50.906;7.248;2023-03-14T15:07:17;23.40;;;4.20;;
43670;SDS011;29267;50.906;7.248;2023-03-14T15:09:43;9.82;;;2.45;;
43670;SDS011;29267;50.906;7.248;2023-03-14T15:12:09;15.00;;;2.20;;
43670;SDS011;29267;50.906;7.248;2023-03-14T15:14:34;11.82;;;2.38;;
43670;SDS011;29267;50.906;7.248;2023-03-14T15:17:00;15.10;;;2.78;;
43670;SDS011;29267;50.906;7.248;2023-03-14T15:19:25;16.00;;;2.85;;
43670;SDS011;29267;50.906;7.248;2023-03-14T15:21:54;13.07;;;3.80;;
43670;SDS011;29267;50.906;7.248;2023-03-14T15:24:20;15.43;;;2.67;;
43670;SDS011;29267;50.906;7.248;2023-03-14T15:26:46;14.77;;;2.22;;
43670;SDS011;29267;50.906;7.248;2023-03-14T15:29:12;9.32;;;2.53;;
43670;SDS011;29267;50.906;7.248;2023-03-14T15:31:38;14.13;;;3.50;;
43670;SDS011;29267;50.906;7.248;2023-03-14T15:34:04;16.80;;;2.30;;
43670;SDS011;29267;50.906;7.248;2023-03-14T15:36:31;12.57;;;2.67;;
43670;SDS011;29267;50.906;7.248;2023-03-14T15:38:59;15.25;;;3.78;;
43670;SDS011;29267;50.906;7.248;2023-03-14T15:41:25;20.27;;;2.83;;
43670;SDS011;29267;50.906;7.248;2023-03-14T15:43:51;14.80;;;3.35;;
43670;SDS011;29267;50.906;7.248;2023-03-14T15:46:17;20.35;;;2.58;;
43670;SDS011;29267;50.906;7.248;2023-03-14T15:48:44;7.70;;;1.83;;
43670;SDS011;29267;50.906;7.248;2023-03-14T15:51:10;16.27;;;3.65;;
43670;SDS011;29267;50.906;7.248;2023-03-14T15:53:36;14.40;;;2.75;;
43670;SDS011;29267;50.906;7.248;2023-03-14T15:56:04;15.15;;;3.55;;
43670;SDS011;29267;50.906;7.248;2023-03-14T15:58:32;19.05;;;2.30;;
43670;SDS011;29267;50.906;7.248;2023-03-14T16:00:59;10.75;;;3.03;;
43670;SDS011;29267;50.906;7.248;2023-03-14T16:03:26;17.08;;;2.63;;